sensor_id;sensor_type;location;lat;lon;timestamp;P1;durP1;ratioP1;P2;durP2;ratioP2
19482;SDS011;9882;51.166;6.992;2024-03-02T00:01:53;3.90;;;2.45;;
19482;SDS011;9882;51.166;6.992;2024-03-02T00:04:22;2.40;;;1.95;;
19482;SDS011;9882;51.166;6.992;2024-03-02T00:06:51;3.13;;;2.10;;
19482;SDS011;9882;51.166;6.992;2024-03-02T00:09:21;3.22;;;2.20;;
19482;SDS011;9882;51.166;6.992;2024-03-02T00:11:51;3.88;;;2.15;;
19482;SDS011;9882;51.166;6.992;2024-03-02T00:14:20;2.15;;;1.80;;
19482;SDS011;9882;51.166;6.992;2024-03-02T00:16:55;2.55;;;2.20;;
19482;SDS011;9882;51.166;6.992;2024-03-02T00:19:24;2.22;;;1.90;;
19482;SDS011;9882;51.166;6.992;2024-03-02T00:21:53;2.20;;;2.00;;
19482;SDS011;9882;51.166;6.992;2024-03-02T00:24:26;3.63;;;2.10;;
19482;SDS011;9882;51.166;6.992;2024-03-02T00:27:00;3.25;;;1.98;;
19482;SDS011;9882;51.166;6.992;2024-03-02T00:29:32;4.53;;;2.13;;
19482;SDS011;9882;51.166;6.992;2024-03-02T00:32:04;1.90;;;1.80;;
19482;SDS011;9882;51.166;6.992;2024-03-02T00:34:39;3.50;;;2.08;;
19482;SDS011;9882;51.166;6.992;2024-03-02T00:37:08;2.35;;;1.95;;
19482;SDS011;9882;51.166;6.992;2024-03-02T00:39:38;3.90;;;2.50;;
19482;SDS011;9882;51.166;6.992;2024-03-02T00:42:07;3.40;;;2.03;;
19482;SDS011;9882;51.166;6.992;2024-03-02T00:44:37;5.63;;;2.95;;
19482;SDS011;9882;51.166;6.992;2024-03-02T00:47:09;3.47;;;2.17;;
19482;SDS011;9882;51.166;6.992;2024-03-02T00:49:38;3.42;;;1.98;;
19482;SDS011;9882;51.166;6.992;2024-03-02T00:52:07;4.55;;;2.33;;
19482;SDS011;9882;51.166;6.992;2024-03-02T00:54:37;2.95;;;2.38;;
19482;SDS011;9882;51.166;6.992;2024-03-02T00:57:07;2.70;;;2.13;;
19482;SDS011;9882;51.166;6.992;2024-03-02T00:59:40;1.67;;;1.58;;
19482;SDS011;9882;51.166;6.992;2024-03-02T01:02:10;2.08;;;1.88;;
19482;SDS011;9882;51.166;6.992;2024-03-02T01:04:39;2.47;;;2.15;;
19482;SDS011;9882;51.166;6.992;2024-03-02T01:07:08;2.17;;;1.65;;
19482;SDS011;9882;51.166;6.992;2024-03-02T01:09:37;3.65;;;2.10;;
19482;SDS011;9882;51.166;6.992;2024-03-02T01:12:08;3.03;;;2.22;;
19482;SDS011;9882;51.166;6.992;2024-03-02T01:14:37;4.97;;;2.28;;
19482;SDS011;9882;51.166;6.992;2024-03-02T01:17:06;4.40;;;2.15;;
19482;SDS011;9882;51.166;6.992;2024-03-02T01:19:36;2.53;;;2.17;;
19482;SDS011;9882;51.166;6.992;2024-03-02T01:22:08;3.70;;;2.20;;
19482;SDS011;9882;51.166;6.992;2024-03-02T01:24:37;2.30;;;2.10;;
19482;SDS011;9882;51.166;6.992;2024-03-02T01:27:06;2.40;;;2.00;;
19482;SDS011;9882;51.166;6.992;2024-03-02T01:29:35;2.80;;;1.70;;
19482;SDS011;9882;51.166;6.992;2024-03-02T01:32:04;1.67;;;1.65;;
19482;SDS011;9882;51.166;6.992;2024-03-02T01:34:34;4.28;;;1.88;;
19482;SDS011;9882;51.166;6.992;2024-03-02T01:37:07;2.20;;;2.00;;
19482;SDS011;9882;51.166;6.992;2024-03-02T01:39:38;4.57;;;2.30;;
19482;SDS011;9882;51.166;6.992;2024-03-02T01:42:07;2.90;;;1.98;;
19482;SDS011;9882;51.166;6.992;2024-03-02T01:44:37;4.03;;;1.90;;
19482;SDS011;9882;51.166;6.992;2024-03-02T01:47:08;3.45;;;2.38;;
19482;SDS011;9882;51.166;6.992;2024-03-02T01:49:37;1.70;;;1.60;;
19482;SDS011;9882;51.166;6.992;2024-03-02T01:52:09;1.85;;;1.73;;
19482;SDS011;9882;51.166;6.992;2024-03-02T01:54:38;1.70;;;1.60;;
19482;SDS011;9882;51.166;6.992;2024-03-02T01:57:07;2.25;;;1.90;;
19482;SDS011;9882;51.166;6.992;2024-03-02T01:59:37;6.05;;;2.10;;
19482;SDS011;9882;51.166;6.992;2024-03-02T02:02:06;2.47;;;1.98;;
19482;SDS011;9882;51.166;6.992;2024-03-02T02:04:35;3.13;;;2.15;;
19482;SDS011;9882;51.166;6.992;2024-03-02T02:07:04;3.22;;;2.13;;
19482;SDS011;9882;51.166;6.992;2024-03-02T02:09:35;2.72;;;1.98;;
19482;SDS011;9882;51.166;6.992;2024-03-02T02:12:04;3.00;;;2.05;;
19482;SDS011;9882;51.166;6.992;2024-03-02T02:14:34;2.10;;;1.98;;
19482;SDS011;9882;51.166;6.992;2024-03-02T02:17:04;2.08;;;1.85;;
19482;SDS011;9882;51.166;6.992;2024-03-02T02:19:33;4.60;;;2.20;;
19482;SDS011;9882;51.166;6.992;2024-03-02T02:22:04;2.78;;;2.22;;
19482;SDS011;9882;51.166;6.992;2024-03-02T02:24:33;2.20;;;2.05;;
19482;SDS011;9882;51.166;6.992;2024-03-02T02:27:02;1.80;;;1.50;;
19482;SDS011;9882;51.166;6.992;2024-03-02T02:29:31;2.50;;;1.88;;
19482;SDS011;9882;51.166;6.992;2024-03-02T02:32:00;2.63;;;1.83;;
19482;SDS011;9882;51.166;6.992;2024-03-02T02:34:29;4.75;;;1.58;;
19482;SDS011;9882;51.166;6.992;2024-03-02T02:36:58;2.15;;;2.00;;
19482;SDS011;9882;51.166;6.992;2024-03-02T02:39:29;3.15;;;1.92;;
19482;SDS011;9882;51.166;6.992;2024-03-02T02:41:58;2.00;;;1.90;;
19482;SDS011;9882;51.166;6.992;2024-03-02T02:44:28;2.20;;;2.00;;
19482;SDS011;9882;51.166;6.992;2024-03-02T02:46:57;2.03;;;1.85;;
19482;SDS011;9882;51.166;6.992;2024-03-02T02:49:26;1.88;;;1.70;;
19482;SDS011;9882;51.166;6.992;2024-03-02T02:51:55;3.22;;;1.90;;
19482;SDS011;9882;51.166;6.992;2024-03-02T02:54:24;3.92;;;2.00;;
19482;SDS011;9882;51.166;6.992;2024-03-02T02:56:54;2.10;;;2.00;;
19482;SDS011;9882;51.166;6.992;2024-03-02T02:59:24;3.88;;;2.25;;
19482;SDS011;9882;51.166;6.992;2024-03-02T03:01:53;2.33;;;1.85;;
19482;SDS011;9882;51.166;6.992;2024-03-02T03:04:22;2.28;;;1.90;;
19482;SDS011;9882;51.166;6.992;2024-03-02T03:06:51;4.68;;;2.20;;
19482;SDS011;9882;51.166;6.992;2024-03-02T03:09:21;2.70;;;1.90;;
19482;SDS011;9882;51.166;6.992;2024-03-02T03:11:50;2.80;;;1.92;;
19482;SDS011;9882;51.166;6.992;2024-03-02T03:14:21;1.83;;;1.73;;
19482;SDS011;9882;51.166;6.992;2024-03-02T03:16:51;2.10;;;2.00;;
19482;SDS011;9882;51.166;6.992;2024-03-02T03:19:20;2.63;;;2.05;;
19482;SDS011;9882;51.166;6.992;2024-03-02T03:21:50;2.10;;;1.70;;
19482;SDS011;9882;51.166;6.992;2024-03-02T03:24:19;2.55;;;1.92;;
19482;SDS011;9882;51.166;6.992;2024-03-02T03:26:48;1.90;;;1.80;;
19482;SDS011;9882;51.166;6.992;2024-03-02T03:29:17;2.90;;;1.92;;
19482;SDS011;9882;51.166;6.992;2024-03-02T03:31:47;3.55;;;2.20;;
19482;SDS011;9882;51.166;6.992;2024-03-02T03:34:17;7.82;;;2.17;;
19482;SDS011;9882;51.166;6.992;2024-03-02T03:36:46;4.03;;;2.00;;
19482;SDS011;9882;51.166;6.992;2024-03-02T03:39:15;1.98;;;1.80;;
19482;SDS011;9882;51.166;6.992;2024-03-02T03:41:44;5.20;;;1.98;;
19482;SDS011;9882;51.166;6.992;2024-03-02T03:44:14;2.40;;;1.88;;
19482;SDS011;9882;51.166;6.992;2024-03-02T03:46:43;3.58;;;1.90;;
19482;SDS011;9882;51.166;6.992;2024-03-02T03:49:13;4.32;;;2.15;;
19482;SDS011;9882;51.166;6.992;2024-03-02T03:51:42;8.52;;;2.20;;
19482;SDS011;9882;51.166;6.992;2024-03-02T03:54:11;2.10;;;1.90;;
19482;SDS011;9882;51.166;6.992;2024-03-02T03:56:40;1.83;;;1.73;;
19482;SDS011;9882;51.166;6.992;2024-03-02T03:59:09;4.28;;;1.88;;
19482;SDS011;9882;51.166;6.992;2024-03-02T04:01:41;3.75;;;2.00;;
19482;SDS011;9882;51.166;6.992;2024-03-02T04:04:10;2.13;;;1.92;;
19482;SDS011;9882;51.166;6.992;2024-03-02T04:06:42;2.50;;;1.90;;
19482;SDS011;9882;51.166;6.992;2024-03-02T04:09:11;2.65;;;2.17;;
19482;SDS011;9882;51.166;6.992;2024-03-02T04:11:40;1.92;;;1.70;;
19482;SDS011;9882;51.166;6.992;2024-03-02T04:14:09;2.60;;;2.20;;
19482;SDS011;9882;51.166;6.992;2024-03-02T04:16:39;2.08;;;1.90;;
19482;SDS011;9882;51.166;6.992;2024-03-02T04:19:09;5.30;;;2.00;;
19482;SDS011;9882;51.166;6.992;2024-03-02T04:21:38;2.20;;;1.85;;
19482;SDS011;9882;51.166;6.992;2024-03-02T04:24:09;2.03;;;1.92;;
19482;SDS011;9882;51.166;6.992;2024-03-02T04:26:38;1.85;;;1.75;;
19482;SDS011;9882;51.166;6.992;2024-03-02T04:29:07;3.13;;;1.98;;
19482;SDS011;9882;51.166;6.992;2024-03-02T04:31:36;3.20;;;2.08;;
19482;SDS011;9882;51.166;6.992;2024-03-02T04:34:05;4.53;;;2.05;;
19482;SDS011;9882;51.166;6.992;2024-03-02T04:36:35;2.35;;;1.88;;
19482;SDS011;9882;51.166;6.992;2024-03-02T04:39:04;4.55;;;2.20;;
19482;SDS011;9882;51.166;6.992;2024-03-02T04:41:38;3.67;;;2.15;;
19482;SDS011;9882;51.166;6.992;2024-03-02T04:44:07;2.83;;;1.92;;
19482;SDS011;9882;51.166;6.992;2024-03-02T04:46:36;2.60;;;2.00;;
19482;SDS011;9882;51.166;6.992;2024-03-02T04:49:05;1.65;;;1.55;;
19482;SDS011;9882;51.166;6.992;2024-03-02T04:51:35;4.47;;;2.00;;
19482;SDS011;9882;51.166;6.992;2024-03-02T04:54:04;2.67;;;1.90;;
19482;SDS011;9882;51.166;6.992;2024-03-02T04:56:33;2.00;;;1.90;;
19482;SDS011;9882;51.166;6.992;2024-03-02T04:59:14;1.83;;;1.73;;
19482;SDS011;9882;51.166;6.992;2024-03-02T05:01:43;2.20;;;2.00;;
19482;SDS011;9882;51.166;6.992;2024-03-02T05:04:13;2.28;;;2.05;;
19482;SDS011;9882;51.166;6.992;2024-03-02T05:06:42;2.85;;;2.35;;
19482;SDS011;9882;51.166;6.992;2024-03-02T05:09:11;4.72;;;2.40;;
19482;SDS011;9882;51.166;6.992;2024-03-02T05:11:40;2.92;;;2.30;;
19482;SDS011;9882;51.166;6.992;2024-03-02T05:14:33;1.75;;;1.65;;
19482;SDS011;9882;51.166;6.992;2024-03-02T05:17:02;2.05;;;1.88;;
19482;SDS011;9882;51.166;6.992;2024-03-02T05:19:33;4.35;;;2.22;;
19482;SDS011;9882;51.166;6.992;2024-03-02T05:22:03;2.15;;;2.00;;
19482;SDS011;9882;51.166;6.992;2024-03-02T05:24:32;3.38;;;2.03;;
19482;SDS011;9882;51.166;6.992;2024-03-02T05:27:01;3.22;;;2.22;;
19482;SDS011;9882;51.166;6.992;2024-03-02T05:29:32;4.55;;;2.10;;
19482;SDS011;9882;51.166;6.992;2024-03-02T05:32:01;1.75;;;1.65;;
19482;SDS011;9882;51.166;6.992;2024-03-02T05:34:31;2.17;;;1.92;;
19482;SDS011;9882;51.166;6.992;2024-03-02T05:37:02;6.38;;;2.22;;
19482;SDS011;9882;51.166;6.992;2024-03-02T05:39:31;2.55;;;1.90;;
19482;SDS011;9882;51.166;6.992;2024-03-02T05:42:00;3.08;;;2.22;;
19482;SDS011;9882;51.166;6.992;2024-03-02T05:44:30;2.60;;;2.38;;
19482;SDS011;9882;51.166;6.992;2024-03-02T05:47:00;4.28;;;2.20;;
19482;SDS011;9882;51.166;6.992;2024-03-02T05:49:30;2.40;;;2.05;;
19482;SDS011;9882;51.166;6.992;2024-03-02T05:51:59;3.97;;;2.17;;
19482;SDS011;9882;51.166;6.992;2024-03-02T05:54:28;2.80;;;2.20;;
19482;SDS011;9882;51.166;6.992;2024-03-02T05:56:57;4.65;;;2.45;;
19482;SDS011;9882;51.166;6.992;2024-03-02T05:59:43;3.03;;;2.17;;
19482;SDS011;9882;51.166;6.992;2024-03-02T06:02:14;4.57;;;2.47;;
19482;SDS011;9882;51.166;6.992;2024-03-02T06:04:43;2.35;;;1.98;;
19482;SDS011;9882;51.166;6.992;2024-03-02T06:07:12;2.10;;;1.90;;
19482;SDS011;9882;51.166;6.992;2024-03-02T06:09:41;2.58;;;2.08;;
19482;SDS011;9882;51.166;6.992;2024-03-02T06:12:11;6.07;;;2.30;;
19482;SDS011;9882;51.166;6.992;2024-03-02T06:14:41;3.75;;;2.47;;
19482;SDS011;9882;51.166;6.992;2024-03-02T06:17:10;2.60;;;2.05;;
19482;SDS011;9882;51.166;6.992;2024-03-02T06:19:40;4.07;;;2.20;;
19482;SDS011;9882;51.166;6.992;2024-03-02T06:22:09;2.17;;;1.98;;
19482;SDS011;9882;51.166;6.992;2024-03-02T06:24:38;3.38;;;2.47;;
19482;SDS011;9882;51.166;6.992;2024-03-02T06:27:08;5.43;;;2.10;;
19482;SDS011;9882;51.166;6.992;2024-03-02T06:29:37;4.07;;;2.28;;
19482;SDS011;9882;51.166;6.992;2024-03-02T06:32:07;4.95;;;2.30;;
19482;SDS011;9882;51.166;6.992;2024-03-02T06:34:36;3.53;;;2.50;;
19482;SDS011;9882;51.166;6.992;2024-03-02T06:37:09;3.45;;;2.10;;
19482;SDS011;9882;51.166;6.992;2024-03-02T06:39:40;3.33;;;2.22;;
19482;SDS011;9882;51.166;6.992;2024-03-02T06:42:09;4.20;;;2.25;;
19482;SDS011;9882;51.166;6.992;2024-03-02T06:44:38;2.58;;;2.28;;
19482;SDS011;9882;51.166;6.992;2024-03-02T06:47:07;3.10;;;2.55;;
19482;SDS011;9882;51.166;6.992;2024-03-02T06:49:37;16.08;;;5.72;;
19482;SDS011;9882;51.166;6.992;2024-03-02T06:55:03;8.10;;;2.75;;
19482;SDS011;9882;51.166;6.992;2024-03-02T06:57:33;11.90;;;2.85;;
19482;SDS011;9882;51.166;6.992;2024-03-02T07:00:03;5.07;;;2.00;;
19482;SDS011;9882;51.166;6.992;2024-03-02T07:02:36;5.03;;;2.65;;
19482;SDS011;9882;51.166;6.992;2024-03-02T07:05:05;5.65;;;2.15;;
19482;SDS011;9882;51.166;6.992;2024-03-02T07:07:40;3.13;;;2.13;;
19482;SDS011;9882;51.166;6.992;2024-03-02T07:10:09;4.05;;;2.30;;
19482;SDS011;9882;51.166;6.992;2024-03-02T07:12:38;4.50;;;2.30;;
19482;SDS011;9882;51.166;6.992;2024-03-02T07:15:08;7.40;;;2.28;;
19482;SDS011;9882;51.166;6.992;2024-03-02T07:17:48;4.18;;;2.28;;
19482;SDS011;9882;51.166;6.992;2024-03-02T07:20:18;4.13;;;2.40;;
19482;SDS011;9882;51.166;6.992;2024-03-02T07:22:50;3.60;;;2.47;;
19482;SDS011;9882;51.166;6.992;2024-03-02T07:25:25;4.47;;;2.58;;
19482;SDS011;9882;51.166;6.992;2024-03-02T07:27:57;5.35;;;2.55;;
19482;SDS011;9882;51.166;6.992;2024-03-02T07:30:27;3.63;;;2.60;;
19482;SDS011;9882;51.166;6.992;2024-03-02T07:32:58;5.32;;;2.60;;
19482;SDS011;9882;51.166;6.992;2024-03-02T07:35:27;2.85;;;2.40;;
19482;SDS011;9882;51.166;6.992;2024-03-02T07:38:00;4.80;;;2.38;;
19482;SDS011;9882;51.166;6.992;2024-03-02T07:40:30;5.13;;;2.70;;
19482;SDS011;9882;51.166;6.992;2024-03-02T07:43:00;4.07;;;2.72;;
19482;SDS011;9882;51.166;6.992;2024-03-02T07:45:29;5.75;;;2.72;;
19482;SDS011;9882;51.166;6.992;2024-03-02T07:47:58;6.32;;;2.58;;
19482;SDS011;9882;51.166;6.992;2024-03-02T07:50:28;7.63;;;3.25;;
19482;SDS011;9882;51.166;6.992;2024-03-02T07:52:57;4.00;;;2.50;;
19482;SDS011;9882;51.166;6.992;2024-03-02T07:55:29;5.22;;;2.67;;
19482;SDS011;9882;51.166;6.992;2024-03-02T07:58:02;2.35;;;2.10;;
19482;SDS011;9882;51.166;6.992;2024-03-02T08:00:31;5.50;;;2.67;;
19482;SDS011;9882;51.166;6.992;2024-03-02T08:03:00;2.95;;;2.28;;
19482;SDS011;9882;51.166;6.992;2024-03-02T08:05:30;2.85;;;2.22;;
19482;SDS011;9882;51.166;6.992;2024-03-02T08:07:59;3.10;;;2.47;;
19482;SDS011;9882;51.166;6.992;2024-03-02T08:10:31;4.13;;;2.22;;
19482;SDS011;9882;51.166;6.992;2024-03-02T08:13:01;5.22;;;2.85;;
19482;SDS011;9882;51.166;6.992;2024-03-02T08:15:30;5.03;;;2.40;;
19482;SDS011;9882;51.166;6.992;2024-03-02T08:18:00;5.95;;;2.70;;
19482;SDS011;9882;51.166;6.992;2024-03-02T08:20:29;2.97;;;2.33;;
19482;SDS011;9882;51.166;6.992;2024-03-02T08:22:58;3.97;;;2.70;;
19482;SDS011;9882;51.166;6.992;2024-03-02T08:25:28;2.47;;;2.28;;
19482;SDS011;9882;51.166;6.992;2024-03-02T08:27:59;3.55;;;2.47;;
19482;SDS011;9882;51.166;6.992;2024-03-02T08:30:28;7.03;;;3.38;;
19482;SDS011;9882;51.166;6.992;2024-03-02T08:32:58;5.13;;;2.40;;
19482;SDS011;9882;51.166;6.992;2024-03-02T08:35:28;4.55;;;2.65;;
19482;SDS011;9882;51.166;6.992;2024-03-02T08:38:03;5.57;;;2.53;;
19482;SDS011;9882;51.166;6.992;2024-03-02T08:40:32;3.10;;;2.20;;
19482;SDS011;9882;51.166;6.992;2024-03-02T08:43:03;5.20;;;2.47;;
19482;SDS011;9882;51.166;6.992;2024-03-02T08:45:32;6.90;;;2.92;;
19482;SDS011;9882;51.166;6.992;2024-03-02T08:48:03;9.93;;;2.83;;
19482;SDS011;9882;51.166;6.992;2024-03-02T08:50:32;4.80;;;2.72;;
19482;SDS011;9882;51.166;6.992;2024-03-02T08:53:02;5.18;;;2.80;;
19482;SDS011;9882;51.166;6.992;2024-03-02T08:55:31;8.55;;;2.40;;
19482;SDS011;9882;51.166;6.992;2024-03-02T08:58:01;7.22;;;2.50;;
19482;SDS011;9882;51.166;6.992;2024-03-02T09:00:32;3.38;;;2.45;;
19482;SDS011;9882;51.166;6.992;2024-03-02T09:03:01;11.23;;;3.30;;
19482;SDS011;9882;51.166;6.992;2024-03-02T09:05:30;5.53;;;2.53;;
19482;SDS011;9882;51.166;6.992;2024-03-02T09:07:59;2.75;;;2.05;;
19482;SDS011;9882;51.166;6.992;2024-03-02T09:10:30;3.67;;;2.58;;
19482;SDS011;9882;51.166;6.992;2024-03-02T09:12:59;4.28;;;2.50;;
19482;SDS011;9882;51.166;6.992;2024-03-02T09:15:30;2.33;;;2.03;;
19482;SDS011;9882;51.166;6.992;2024-03-02T09:18:00;6.32;;;2.65;;
19482;SDS011;9882;51.166;6.992;2024-03-02T09:20:30;3.20;;;2.15;;
19482;SDS011;9882;51.166;6.992;2024-03-02T09:22:59;4.07;;;2.17;;
19482;SDS011;9882;51.166;6.992;2024-03-02T09:25:28;2.67;;;2.13;;
19482;SDS011;9882;51.166;6.992;2024-03-02T09:27:56;2.42;;;2.17;;
19482;SDS011;9882;51.166;6.992;2024-03-02T09:30:26;3.17;;;2.45;;
19482;SDS011;9882;51.166;6.992;2024-03-02T09:32:57;2.63;;;2.10;;
19482;SDS011;9882;51.166;6.992;2024-03-02T09:35:29;2.33;;;1.98;;
19482;SDS011;9882;51.166;6.992;2024-03-02T09:37:58;2.08;;;1.77;;
19482;SDS011;9882;51.166;6.992;2024-03-02T09:40:28;4.18;;;1.98;;
19482;SDS011;9882;51.166;6.992;2024-03-02T09:42:57;2.03;;;1.92;;
19482;SDS011;9882;51.166;6.992;2024-03-02T09:45:29;2.38;;;2.00;;
19482;SDS011;9882;51.166;6.992;2024-03-02T09:48:00;6.57;;;2.03;;
19482;SDS011;9882;51.166;6.992;2024-03-02T09:50:30;3.05;;;2.20;;
19482;SDS011;9882;51.166;6.992;2024-03-02T09:53:00;2.22;;;2.03;;
19482;SDS011;9882;51.166;6.992;2024-03-02T09:55:30;2.80;;;2.03;;
19482;SDS011;9882;51.166;6.992;2024-03-02T09:58:00;2.05;;;1.73;;
19482;SDS011;9882;51.166;6.992;2024-03-02T10:00:29;2.08;;;1.88;;
19482;SDS011;9882;51.166;6.992;2024-03-02T10:02:59;2.30;;;1.80;;
19482;SDS011;9882;51.166;6.992;2024-03-02T10:05:30;2.03;;;1.80;;
19482;SDS011;9882;51.166;6.992;2024-03-02T10:07:59;3.42;;;2.20;;
19482;SDS011;9882;51.166;6.992;2024-03-02T10:10:36;1.60;;;1.50;;
19482;SDS011;9882;51.166;6.992;2024-03-02T10:13:11;2.00;;;1.90;;
19482;SDS011;9882;51.166;6.992;2024-03-02T10:15:41;2.05;;;1.83;;
19482;SDS011;9882;51.166;6.992;2024-03-02T10:18:13;1.70;;;1.60;;
19482;SDS011;9882;51.166;6.992;2024-03-02T10:20:43;2.58;;;1.73;;
19482;SDS011;9882;51.166;6.992;2024-03-02T10:23:16;1.40;;;1.33;;
19482;SDS011;9882;51.166;6.992;2024-03-02T10:25:46;1.80;;;1.70;;
19482;SDS011;9882;51.166;6.992;2024-03-02T10:28:17;1.85;;;1.67;;
19482;SDS011;9882;51.166;6.992;2024-03-02T10:30:47;1.92;;;1.67;;
19482;SDS011;9882;51.166;6.992;2024-03-02T10:33:22;1.83;;;1.70;;
19482;SDS011;9882;51.166;6.992;2024-03-02T10:35:55;3.13;;;1.95;;
19482;SDS011;9882;51.166;6.992;2024-03-02T10:38:25;3.92;;;1.75;;
19482;SDS011;9882;51.166;6.992;2024-03-02T10:40:56;3.75;;;1.77;;
19482;SDS011;9882;51.166;6.992;2024-03-02T10:43:28;1.70;;;1.58;;
19482;SDS011;9882;51.166;6.992;2024-03-02T10:45:59;3.50;;;1.92;;
19482;SDS011;9882;51.166;6.992;2024-03-02T10:48:30;3.05;;;1.83;;
19482;SDS011;9882;51.166;6.992;2024-03-02T10:51:01;7.50;;;2.08;;
19482;SDS011;9882;51.166;6.992;2024-03-02T10:53:32;1.70;;;1.60;;
19482;SDS011;9882;51.166;6.992;2024-03-02T10:56:02;2.67;;;2.08;;
19482;SDS011;9882;51.166;6.992;2024-03-02T10:58:36;2.42;;;1.90;;
19482;SDS011;9882;51.166;6.992;2024-03-02T11:01:06;3.30;;;1.80;;
19482;SDS011;9882;51.166;6.992;2024-03-02T11:03:38;3.72;;;2.00;;
19482;SDS011;9882;51.166;6.992;2024-03-02T11:06:12;1.80;;;1.70;;
19482;SDS011;9882;51.166;6.992;2024-03-02T11:08:42;3.10;;;1.73;;
19482;SDS011;9882;51.166;6.992;2024-03-02T11:11:15;2.25;;;1.70;;
19482;SDS011;9882;51.166;6.992;2024-03-02T11:13:51;2.72;;;1.83;;
19482;SDS011;9882;51.166;6.992;2024-03-02T11:16:27;4.03;;;1.95;;
19482;SDS011;9882;51.166;6.992;2024-03-02T11:19:07;4.35;;;1.67;;
19482;SDS011;9882;51.166;6.992;2024-03-02T11:21:39;1.63;;;1.52;;
19482;SDS011;9882;51.166;6.992;2024-03-02T11:27:13;6.60;;;1.80;;
19482;SDS011;9882;51.166;6.992;2024-03-02T11:30:03;1.88;;;1.67;;
19482;SDS011;9882;51.166;6.992;2024-03-02T11:32:34;1.48;;;1.38;;
19482;SDS011;9882;51.166;6.992;2024-03-02T11:35:06;3.97;;;1.88;;
19482;SDS011;9882;51.166;6.992;2024-03-02T11:37:45;1.83;;;1.67;;
19482;SDS011;9882;51.166;6.992;2024-03-02T11:40:15;1.85;;;1.73;;
19482;SDS011;9882;51.166;6.992;2024-03-02T11:42:50;4.32;;;1.42;;
19482;SDS011;9882;51.166;6.992;2024-03-02T11:45:22;2.38;;;1.55;;
19482;SDS011;9882;51.166;6.992;2024-03-02T11:47:51;1.90;;;1.50;;
19482;SDS011;9882;51.166;6.992;2024-03-02T11:50:30;2.65;;;1.67;;
19482;SDS011;9882;51.166;6.992;2024-03-02T11:53:02;1.30;;;1.30;;
19482;SDS011;9882;51.166;6.992;2024-03-02T11:55:35;2.13;;;1.80;;
19482;SDS011;9882;51.166;6.992;2024-03-02T11:58:04;2.65;;;1.63;;
19482;SDS011;9882;51.166;6.992;2024-03-02T12:00:33;3.47;;;1.65;;
19482;SDS011;9882;51.166;6.992;2024-03-02T12:03:03;1.95;;;1.75;;
19482;SDS011;9882;51.166;6.992;2024-03-02T12:05:36;1.55;;;1.45;;
19482;SDS011;9882;51.166;6.992;2024-03-02T12:08:06;2.90;;;1.45;;
19482;SDS011;9882;51.166;6.992;2024-03-02T12:10:36;5.15;;;1.55;;
19482;SDS011;9882;51.166;6.992;2024-03-02T12:13:05;1.70;;;1.60;;
19482;SDS011;9882;51.166;6.992;2024-03-02T12:15:38;1.77;;;1.67;;
19482;SDS011;9882;51.166;6.992;2024-03-02T12:18:08;1.55;;;1.45;;
19482;SDS011;9882;51.166;6.992;2024-03-02T12:20:39;3.72;;;1.70;;
19482;SDS011;9882;51.166;6.992;2024-03-02T12:23:08;1.38;;;1.30;;
19482;SDS011;9882;51.166;6.992;2024-03-02T12:25:38;1.58;;;1.48;;
19482;SDS011;9882;51.166;6.992;2024-03-02T12:28:07;1.85;;;1.70;;
19482;SDS011;9882;51.166;6.992;2024-03-02T12:30:37;1.35;;;1.30;;
19482;SDS011;9882;51.166;6.992;2024-03-02T12:33:07;1.58;;;1.48;;
19482;SDS011;9882;51.166;6.992;2024-03-02T12:35:36;5.63;;;1.90;;
19482;SDS011;9882;51.166;6.992;2024-03-02T12:38:08;1.60;;;1.50;;
19482;SDS011;9882;51.166;6.992;2024-03-02T12:40:38;1.38;;;1.33;;
19482;SDS011;9882;51.166;6.992;2024-03-02T12:43:07;1.60;;;1.50;;
19482;SDS011;9882;51.166;6.992;2024-03-02T12:45:37;1.30;;;1.27;;
19482;SDS011;9882;51.166;6.992;2024-03-02T12:48:06;3.00;;;1.67;;
19482;SDS011;9882;51.166;6.992;2024-03-02T12:50:35;1.35;;;1.25;;
19482;SDS011;9882;51.166;6.992;2024-03-02T12:53:05;1.20;;;1.20;;
19482;SDS011;9882;51.166;6.992;2024-03-02T12:55:36;2.00;;;1.63;;
19482;SDS011;9882;51.166;6.992;2024-03-02T12:58:06;1.70;;;1.60;;
19482;SDS011;9882;51.166;6.992;2024-03-02T13:00:35;1.58;;;1.48;;
19482;SDS011;9882;51.166;6.992;2024-03-02T13:03:05;2.85;;;1.65;;
19482;SDS011;9882;51.166;6.992;2024-03-02T13:05:35;1.80;;;1.67;;
19482;SDS011;9882;51.166;6.992;2024-03-02T13:08:04;2.58;;;1.63;;
19482;SDS011;9882;51.166;6.992;2024-03-02T13:10:37;1.85;;;1.70;;
19482;SDS011;9882;51.166;6.992;2024-03-02T13:13:08;2.10;;;1.50;;
19482;SDS011;9882;51.166;6.992;2024-03-02T13:15:38;3.35;;;2.13;;
19482;SDS011;9882;51.166;6.992;2024-03-02T13:18:07;2.70;;;1.80;;
19482;SDS011;9882;51.166;6.992;2024-03-02T13:20:40;2.42;;;1.55;;
19482;SDS011;9882;51.166;6.992;2024-03-02T13:23:09;1.70;;;1.60;;
19482;SDS011;9882;51.166;6.992;2024-03-02T13:25:40;1.58;;;1.50;;
19482;SDS011;9882;51.166;6.992;2024-03-02T13:28:10;1.67;;;1.58;;
19482;SDS011;9882;51.166;6.992;2024-03-02T13:30:39;1.55;;;1.45;;
19482;SDS011;9882;51.166;6.992;2024-03-02T13:33:08;1.60;;;1.50;;
19482;SDS011;9882;51.166;6.992;2024-03-02T13:35:38;1.98;;;1.77;;
19482;SDS011;9882;51.166;6.992;2024-03-02T13:38:07;2.65;;;1.40;;
19482;SDS011;9882;51.166;6.992;2024-03-02T13:40:36;1.50;;;1.40;;
19482;SDS011;9882;51.166;6.992;2024-03-02T13:43:07;1.60;;;1.50;;
19482;SDS011;9882;51.166;6.992;2024-03-02T13:45:36;1.30;;;1.20;;
19482;SDS011;9882;51.166;6.992;2024-03-02T13:48:06;2.30;;;1.50;;
19482;SDS011;9882;51.166;6.992;2024-03-02T13:50:36;2.40;;;1.77;;
19482;SDS011;9882;51.166;6.992;2024-03-02T13:53:05;1.58;;;1.48;;
19482;SDS011;9882;51.166;6.992;2024-03-02T13:55:35;1.75;;;1.65;;
19482;SDS011;9882;51.166;6.992;2024-03-02T13:58:04;2.35;;;1.77;;
19482;SDS011;9882;51.166;6.992;2024-03-02T14:00:35;3.70;;;1.60;;
19482;SDS011;9882;51.166;6.992;2024-03-02T14:03:05;1.60;;;1.50;;
19482;SDS011;9882;51.166;6.992;2024-03-02T14:05:35;1.60;;;1.50;;
19482;SDS011;9882;51.166;6.992;2024-03-02T14:08:04;1.80;;;1.50;;
19482;SDS011;9882;51.166;6.992;2024-03-02T14:10:34;1.35;;;1.30;;
19482;SDS011;9882;51.166;6.992;2024-03-02T14:13:03;1.50;;;1.48;;
19482;SDS011;9882;51.166;6.992;2024-03-02T14:15:34;1.50;;;1.40;;
19482;SDS011;9882;51.166;6.992;2024-03-02T14:18:05;3.55;;;1.73;;
19482;SDS011;9882;51.166;6.992;2024-03-02T14:20:37;6.75;;;1.42;;
19482;SDS011;9882;51.166;6.992;2024-03-02T14:23:06;3.00;;;1.60;;
19482;SDS011;9882;51.166;6.992;2024-03-02T14:25:37;1.60;;;1.50;;
19482;SDS011;9882;51.166;6.992;2024-03-02T14:28:06;1.95;;;1.77;;
19482;SDS011;9882;51.166;6.992;2024-03-02T14:30:44;2.50;;;1.88;;
19482;SDS011;9882;51.166;6.992;2024-03-02T14:33:13;1.63;;;1.52;;
19482;SDS011;9882;51.166;6.992;2024-03-02T14:35:44;1.70;;;1.60;;
19482;SDS011;9882;51.166;6.992;2024-03-02T14:38:14;3.22;;;1.80;;
19482;SDS011;9882;51.166;6.992;2024-03-02T14:40:43;1.52;;;1.42;;
19482;SDS011;9882;51.166;6.992;2024-03-02T14:43:12;1.60;;;1.50;;
19482;SDS011;9882;51.166;6.992;2024-03-02T14:45:41;1.35;;;1.35;;
19482;SDS011;9882;51.166;6.992;2024-03-02T14:48:13;2.30;;;1.52;;
19482;SDS011;9882;51.166;6.992;2024-03-02T14:50:43;1.70;;;1.60;;
19482;SDS011;9882;51.166;6.992;2024-03-02T14:53:13;2.58;;;1.85;;
19482;SDS011;9882;51.166;6.992;2024-03-02T14:55:42;1.42;;;1.33;;
19482;SDS011;9882;51.166;6.992;2024-03-02T14:58:11;1.50;;;1.40;;
19482;SDS011;9882;51.166;6.992;2024-03-02T15:00:41;1.45;;;1.35;;
19482;SDS011;9882;51.166;6.992;2024-03-02T15:03:11;2.38;;;1.92;;
19482;SDS011;9882;51.166;6.992;2024-03-02T15:05:40;2.10;;;1.48;;
19482;SDS011;9882;51.166;6.992;2024-03-02T15:08:10;1.92;;;1.58;;
19482;SDS011;9882;51.166;6.992;2024-03-02T15:10:41;1.77;;;1.63;;
19482;SDS011;9882;51.166;6.992;2024-03-02T15:13:11;3.72;;;1.73;;
19482;SDS011;9882;51.166;6.992;2024-03-02T15:15:40;1.83;;;1.50;;
19482;SDS011;9882;51.166;6.992;2024-03-02T15:18:12;2.97;;;1.55;;
19482;SDS011;9882;51.166;6.992;2024-03-02T15:20:41;1.65;;;1.55;;
19482;SDS011;9882;51.166;6.992;2024-03-02T15:23:10;1.80;;;1.70;;
19482;SDS011;9882;51.166;6.992;2024-03-02T15:25:39;1.25;;;1.25;;